sensor_id;sensor_type;location;lat;lon;timestamp;P1;durP1;ratioP1;P2;durP2;ratioP2
15256;SDS011;7731;50.720;6.912;2023-03-03T00:02:28;24.30;;;15.10;;
15256;SDS011;7731;50.720;6.912;2023-03-03T00:05:02;22.57;;;13.93;;
15256;SDS011;7731;50.720;6.912;2023-03-03T00:07:33;24.70;;;14.93;;
15256;SDS011;7731;50.720;6.912;2023-03-03T00:10:03;30.73;;;16.83;;
15256;SDS011;7731;50.720;6.912;2023-03-03T00:12:35;29.23;;;16.40;;
15256;SDS011;7731;50.720;6.912;2023-03-03T00:15:17;27.27;;;16.40;;
15256;SDS011;7731;50.720;6.912;2023-03-03T00:17:50;24.70;;;14.93;;
15256;SDS011;7731;50.720;6.912;2023-03-03T00:20:30;39.67;;;19.13;;
15256;SDS011;7731;50.720;6.912;2023-03-03T00:23:12;32.33;;;18.17;;
15256;SDS011;7731;50.720;6.912;2023-03-03T00:25:52;24.80;;;14.90;;
15256;SDS011;7731;50.720;6.912;2023-03-03T00:28:25;27.10;;;15.37;;
15256;SDS011;7731;50.720;6.912;2023-03-03T00:30:58;35.77;;;20.17;;
15256;SDS011;7731;50.720;6.912;2023-03-03T00:33:31;31.87;;;16.30;;
15256;SDS011;7731;50.720;6.912;2023-03-03T00:36:20;30.77;;;17.13;;
15256;SDS011;7731;50.720;6.912;2023-03-03T00:38:59;40.97;;;20.37;;
15256;SDS011;7731;50.720;6.912;2023-03-03T00:41:47;37.33;;;17.73;;
15256;SDS011;7731;50.720;6.912;2023-03-03T00:44:30;23.27;;;14.00;;
15256;SDS011;7731;50.720;6.912;2023-03-03T00:50:17;27.77;;;16.10;;
15256;SDS011;7731;50.720;6.912;2023-03-03T00:53:03;29.73;;;19.87;;
15256;SDS011;7731;50.720;6.912;2023-03-03T00:55:39;28.03;;;19.33;;
15256;SDS011;7731;50.720;6.912;2023-03-03T00:58:09;24.30;;;17.80;;
15256;SDS011;7731;50.720;6.912;2023-03-03T01:00:39;23.13;;;16.37;;
15256;SDS011;7731;50.720;6.912;2023-03-03T01:03:13;23.83;;;15.07;;
15256;SDS011;7731;50.720;6.912;2023-03-03T01:05:50;23.60;;;15.17;;
15256;SDS011;7731;50.720;6.912;2023-03-03T01:08:24;27.70;;;16.17;;
15256;SDS011;7731;50.720;6.912;2023-03-03T01:10:55;24.90;;;15.60;;
15256;SDS011;7731;50.720;6.912;2023-03-03T01:13:32;23.87;;;15.23;;
15256;SDS011;7731;50.720;6.912;2023-03-03T01:16:05;26.93;;;16.27;;
15256;SDS011;7731;50.720;6.912;2023-03-03T01:18:37;24.67;;;15.63;;
15256;SDS011;7731;50.720;6.912;2023-03-03T01:21:08;26.80;;;15.57;;
15256;SDS011;7731;50.720;6.912;2023-03-03T01:23:42;24.10;;;15.00;;
15256;SDS011;7731;50.720;6.912;2023-03-03T01:26:15;25.63;;;16.57;;
15256;SDS011;7731;50.720;6.912;2023-03-03T01:28:45;24.70;;;15.77;;
15256;SDS011;7731;50.720;6.912;2023-03-03T01:31:15;24.90;;;15.60;;
15256;SDS011;7731;50.720;6.912;2023-03-03T01:33:45;22.50;;;14.83;;
15256;SDS011;7731;50.720;6.912;2023-03-03T01:36:16;26.10;;;15.17;;
15256;SDS011;7731;50.720;6.912;2023-03-03T01:38:56;27.20;;;17.47;;
15256;SDS011;7731;50.720;6.912;2023-03-03T01:41:26;28.93;;;17.60;;
15256;SDS011;7731;50.720;6.912;2023-03-03T01:43:59;34.10;;;18.83;;
15256;SDS011;7731;50.720;6.912;2023-03-03T01:46:39;31.47;;;19.00;;
15256;SDS011;7731;50.720;6.912;2023-03-03T01:49:17;31.93;;;18.63;;
15256;SDS011;7731;50.720;6.912;2023-03-03T01:51:54;29.97;;;18.53;;
15256;SDS011;7731;50.720;6.912;2023-03-03T01:54:33;35.17;;;20.23;;
15256;SDS011;7731;50.720;6.912;2023-03-03T01:57:11;33.43;;;19.23;;
15256;SDS011;7731;50.720;6.912;2023-03-03T01:59:49;32.50;;;19.60;;
15256;SDS011;7731;50.720;6.912;2023-03-03T02:02:21;32.43;;;21.70;;
15256;SDS011;7731;50.720;6.912;2023-03-03T02:04:55;33.57;;;22.30;;
15256;SDS011;7731;50.720;6.912;2023-03-03T02:07:26;37.03;;;25.40;;
15256;SDS011;7731;50.720;6.912;2023-03-03T02:10:03;39.20;;;27.23;;
15256;SDS011;7731;50.720;6.912;2023-03-03T02:12:40;29.80;;;20.20;;
15256;SDS011;7731;50.720;6.912;2023-03-03T02:15:17;31.57;;;19.13;;
15256;SDS011;7731;50.720;6.912;2023-03-03T02:17:51;34.40;;;20.63;;
15256;SDS011;7731;50.720;6.912;2023-03-03T02:20:28;36.90;;;20.87;;
15256;SDS011;7731;50.720;6.912;2023-03-03T02:23:23;41.77;;;25.17;;
15256;SDS011;7731;50.720;6.912;2023-03-03T02:26:07;34.83;;;21.57;;
15256;SDS011;7731;50.720;6.912;2023-03-03T02:28:41;35.20;;;21.20;;
15256;SDS011;7731;50.720;6.912;2023-03-03T02:31:12;35.53;;;20.67;;
15256;SDS011;7731;50.720;6.912;2023-03-03T02:33:47;36.00;;;19.93;;
15256;SDS011;7731;50.720;6.912;2023-03-03T02:36:22;32.43;;;20.67;;
15256;SDS011;7731;50.720;6.912;2023-03-03T02:38:58;36.37;;;21.50;;
15256;SDS011;7731;50.720;6.912;2023-03-03T02:41:43;32.57;;;20.60;;
15256;SDS011;7731;50.720;6.912;2023-03-03T02:44:20;35.87;;;20.97;;
15256;SDS011;7731;50.720;6.912;2023-03-03T02:46:53;37.50;;;21.23;;
15256;SDS011;7731;50.720;6.912;2023-03-03T02:49:25;35.40;;;21.07;;
15256;SDS011;7731;50.720;6.912;2023-03-03T02:51:59;33.47;;;21.07;;
15256;SDS011;7731;50.720;6.912;2023-03-03T02:54:32;42.90;;;25.37;;
15256;SDS011;7731;50.720;6.912;2023-03-03T02:57:05;39.27;;;23.47;;
15256;SDS011;7731;50.720;6.912;2023-03-03T02:59:35;35.67;;;21.83;;
15256;SDS011;7731;50.720;6.912;2023-03-03T03:02:05;38.63;;;22.23;;
15256;SDS011;7731;50.720;6.912;2023-03-03T03:04:37;35.63;;;21.93;;
15256;SDS011;7731;50.720;6.912;2023-03-03T03:07:08;39.10;;;22.90;;
15256;SDS011;7731;50.720;6.912;2023-03-03T03:09:38;37.53;;;23.33;;
15256;SDS011;7731;50.720;6.912;2023-03-03T03:12:13;36.90;;;22.57;;
15256;SDS011;7731;50.720;6.912;2023-03-03T03:14:46;39.73;;;22.33;;
15256;SDS011;7731;50.720;6.912;2023-03-03T03:17:16;42.53;;;23.17;;
15256;SDS011;7731;50.720;6.912;2023-03-03T03:19:46;39.63;;;23.30;;
15256;SDS011;7731;50.720;6.912;2023-03-03T03:22:33;44.60;;;30.03;;
15256;SDS011;7731;50.720;6.912;2023-03-03T03:25:03;38.77;;;22.20;;
15256;SDS011;7731;50.720;6.912;2023-03-03T03:27:37;42.60;;;23.50;;
15256;SDS011;7731;50.720;6.912;2023-03-03T03:30:08;39.40;;;23.40;;
15256;SDS011;7731;50.720;6.912;2023-03-03T03:32:39;36.07;;;21.67;;
15256;SDS011;7731;50.720;6.912;2023-03-03T03:35:10;36.93;;;21.80;;
15256;SDS011;7731;50.720;6.912;2023-03-03T03:37:41;42.20;;;23.63;;
15256;SDS011;7731;50.720;6.912;2023-03-03T03:40:11;40.93;;;22.67;;
15256;SDS011;7731;50.720;6.912;2023-03-03T03:42:44;42.43;;;24.00;;
15256;SDS011;7731;50.720;6.912;2023-03-03T03:45:14;46.37;;;25.67;;
15256;SDS011;7731;50.720;6.912;2023-03-03T03:47:45;48.33;;;26.93;;
15256;SDS011;7731;50.720;6.912;2023-03-03T03:50:15;47.17;;;25.43;;
15256;SDS011;7731;50.720;6.912;2023-03-03T03:52:46;46.37;;;26.63;;
15256;SDS011;7731;50.720;6.912;2023-03-03T03:55:17;47.23;;;26.50;;
15256;SDS011;7731;50.720;6.912;2023-03-03T03:57:50;53.10;;;26.27;;
15256;SDS011;7731;50.720;6.912;2023-03-03T04:00:20;46.20;;;26.70;;
15256;SDS011;7731;50.720;6.912;2023-03-03T04:02:51;45.47;;;26.20;;
15256;SDS011;7731;50.720;6.912;2023-03-03T04:05:22;48.40;;;27.07;;
15256;SDS011;7731;50.720;6.912;2023-03-03T04:07:52;54.07;;;27.67;;
15256;SDS011;7731;50.720;6.912;2023-03-03T04:10:22;52.70;;;28.13;;
15256;SDS011;7731;50.720;6.912;2023-03-03T04:12:59;51.63;;;29.27;;
15256;SDS011;7731;50.720;6.912;2023-03-03T04:15:29;56.73;;;30.53;;
15256;SDS011;7731;50.720;6.912;2023-03-03T04:18:00;63.23;;;31.50;;
15256;SDS011;7731;50.720;6.912;2023-03-03T04:20:33;62.83;;;32.03;;
15256;SDS011;7731;50.720;6.912;2023-03-03T04:23:03;62.37;;;32.80;;
15256;SDS011;7731;50.720;6.912;2023-03-03T04:25:33;61.63;;;33.17;;
15256;SDS011;7731;50.720;6.912;2023-03-03T04:28:06;62.50;;;32.20;;
15256;SDS011;7731;50.720;6.912;2023-03-03T04:30:36;63.97;;;33.07;;
15256;SDS011;7731;50.720;6.912;2023-03-03T04:33:07;64.13;;;32.00;;
15256;SDS011;7731;50.720;6.912;2023-03-03T04:35:37;69.30;;;35.33;;
15256;SDS011;7731;50.720;6.912;2023-03-03T04:38:07;63.87;;;32.77;;
15256;SDS011;7731;50.720;6.912;2023-03-03T04:40:39;63.00;;;32.17;;
15256;SDS011;7731;50.720;6.912;2023-03-03T04:43:15;63.27;;;32.00;;
15256;SDS011;7731;50.720;6.912;2023-03-03T04:45:45;60.67;;;31.17;;
15256;SDS011;7731;50.720;6.912;2023-03-03T04:48:16;63.93;;;32.47;;
15256;SDS011;7731;50.720;6.912;2023-03-03T04:50:47;64.67;;;32.10;;
15256;SDS011;7731;50.720;6.912;2023-03-03T04:53:17;59.90;;;30.77;;
15256;SDS011;7731;50.720;6.912;2023-03-03T04:55:48;61.70;;;31.23;;
15256;SDS011;7731;50.720;6.912;2023-03-03T04:58:22;62.57;;;30.17;;
15256;SDS011;7731;50.720;6.912;2023-03-03T05:00:55;59.47;;;29.70;;
15256;SDS011;7731;50.720;6.912;2023-03-03T05:03:26;58.90;;;30.73;;
15256;SDS011;7731;50.720;6.912;2023-03-03T05:05:59;67.43;;;34.70;;
15256;SDS011;7731;50.720;6.912;2023-03-03T05:08:29;66.50;;;32.77;;
15256;SDS011;7731;50.720;6.912;2023-03-03T05:10:59;52.60;;;28.63;;
15256;SDS011;7731;50.720;6.912;2023-03-03T05:13:32;58.60;;;30.77;;
15256;SDS011;7731;50.720;6.912;2023-03-03T05:16:02;52.63;;;28.47;;
15256;SDS011;7731;50.720;6.912;2023-03-03T05:18:33;52.17;;;28.00;;
15256;SDS011;7731;50.720;6.912;2023-03-03T05:21:04;62.47;;;31.33;;
15256;SDS011;7731;50.720;6.912;2023-03-03T05:23:34;59.60;;;32.47;;
15256;SDS011;7731;50.720;6.912;2023-03-03T05:26:04;59.27;;;30.10;;
15256;SDS011;7731;50.720;6.912;2023-03-03T05:28:37;67.07;;;33.70;;
15256;SDS011;7731;50.720;6.912;2023-03-03T05:31:07;54.47;;;30.23;;
15256;SDS011;7731;50.720;6.912;2023-03-03T05:33:37;61.47;;;32.27;;
15256;SDS011;7731;50.720;6.912;2023-03-03T05:36:10;58.63;;;30.00;;
15256;SDS011;7731;50.720;6.912;2023-03-03T05:38:40;63.77;;;31.03;;
15256;SDS011;7731;50.720;6.912;2023-03-03T05:41:10;60.40;;;30.67;;
15256;SDS011;7731;50.720;6.912;2023-03-03T05:43:43;64.10;;;30.47;;
15256;SDS011;7731;50.720;6.912;2023-03-03T05:46:13;61.77;;;31.27;;
15256;SDS011;7731;50.720;6.912;2023-03-03T05:48:43;58.10;;;28.83;;
15256;SDS011;7731;50.720;6.912;2023-03-03T05:51:13;65.30;;;32.33;;
15256;SDS011;7731;50.720;6.912;2023-03-03T05:53:44;61.17;;;29.77;;
15256;SDS011;7731;50.720;6.912;2023-03-03T05:56:15;59.97;;;30.27;;
15256;SDS011;7731;50.720;6.912;2023-03-03T05:58:47;61.17;;;29.77;;
15256;SDS011;7731;50.720;6.912;2023-03-03T06:01:18;63.43;;;29.77;;
15256;SDS011;7731;50.720;6.912;2023-03-03T06:03:48;66.73;;;30.43;;
15256;SDS011;7731;50.720;6.912;2023-03-03T06:06:18;64.93;;;30.77;;
15256;SDS011;7731;50.720;6.912;2023-03-03T06:08:59;62.27;;;31.17;;
15256;SDS011;7731;50.720;6.912;2023-03-03T06:11:30;63.63;;;30.10;;
15256;SDS011;7731;50.720;6.912;2023-03-03T06:14:03;71.97;;;32.13;;
15256;SDS011;7731;50.720;6.912;2023-03-03T06:16:33;65.40;;;31.53;;
15256;SDS011;7731;50.720;6.912;2023-03-03T06:19:03;78.03;;;32.33;;
15256;SDS011;7731;50.720;6.912;2023-03-03T06:21:37;74.70;;;35.97;;
15256;SDS011;7731;50.720;6.912;2023-03-03T06:24:07;67.83;;;32.10;;
15256;SDS011;7731;50.720;6.912;2023-03-03T06:26:37;64.57;;;31.67;;
15256;SDS011;7731;50.720;6.912;2023-03-03T06:29:12;64.20;;;32.20;;
15256;SDS011;7731;50.720;6.912;2023-03-03T06:31:42;56.80;;;29.80;;
15256;SDS011;7731;50.720;6.912;2023-03-03T06:34:13;59.30;;;29.17;;
15256;SDS011;7731;50.720;6.912;2023-03-03T06:36:43;50.77;;;27.30;;
15256;SDS011;7731;50.720;6.912;2023-03-03T06:39:14;55.43;;;28.40;;
15256;SDS011;7731;50.720;6.912;2023-03-03T06:41:44;55.00;;;27.20;;
15256;SDS011;7731;50.720;6.912;2023-03-03T06:44:17;53.27;;;28.03;;
15256;SDS011;7731;50.720;6.912;2023-03-03T06:46:48;54.50;;;27.60;;
15256;SDS011;7731;50.720;6.912;2023-03-03T06:49:18;56.83;;;28.40;;
15256;SDS011;7731;50.720;6.912;2023-03-03T06:51:49;54.47;;;27.13;;
15256;SDS011;7731;50.720;6.912;2023-03-03T06:54:20;49.30;;;25.63;;
15256;SDS011;7731;50.720;6.912;2023-03-03T06:56:57;49.67;;;26.43;;
15256;SDS011;7731;50.720;6.912;2023-03-03T06:59:46;53.97;;;27.60;;
15256;SDS011;7731;50.720;6.912;2023-03-03T07:02:21;50.23;;;27.13;;
15256;SDS011;7731;50.720;6.912;2023-03-03T07:04:52;45.50;;;24.43;;
15256;SDS011;7731;50.720;6.912;2023-03-03T07:07:25;49.23;;;25.67;;
15256;SDS011;7731;50.720;6.912;2023-03-03T07:09:55;50.30;;;26.60;;
15256;SDS011;7731;50.720;6.912;2023-03-03T07:12:27;50.77;;;25.37;;
15256;SDS011;7731;50.720;6.912;2023-03-03T07:15:11;49.20;;;24.00;;
15256;SDS011;7731;50.720;6.912;2023-03-03T07:17:46;44.83;;;24.23;;
15256;SDS011;7731;50.720;6.912;2023-03-03T07:20:21;49.03;;;25.50;;
15256;SDS011;7731;50.720;6.912;2023-03-03T07:22:56;51.90;;;25.33;;
15256;SDS011;7731;50.720;6.912;2023-03-03T07:25:28;53.23;;;27.43;;
15256;SDS011;7731;50.720;6.912;2023-03-03T07:28:07;52.20;;;27.33;;
15256;SDS011;7731;50.720;6.912;2023-03-03T07:30:54;45.40;;;25.70;;
15256;SDS011;7731;50.720;6.912;2023-03-03T07:33:26;49.47;;;24.77;;
15256;SDS011;7731;50.720;6.912;2023-03-03T07:36:17;48.77;;;25.10;;
15256;SDS011;7731;50.720;6.912;2023-03-03T07:38:57;52.40;;;24.67;;
15256;SDS011;7731;50.720;6.912;2023-03-03T07:41:30;50.73;;;24.97;;
15256;SDS011;7731;50.720;6.912;2023-03-03T07:44:04;46.47;;;24.47;;
15256;SDS011;7731;50.720;6.912;2023-03-03T07:46:48;46.37;;;24.90;;
15256;SDS011;7731;50.720;6.912;2023-03-03T07:49:21;57.80;;;29.10;;
15256;SDS011;7731;50.720;6.912;2023-03-03T07:52:00;52.63;;;26.50;;
15256;SDS011;7731;50.720;6.912;2023-03-03T07:54:48;45.67;;;24.60;;
15256;SDS011;7731;50.720;6.912;2023-03-03T07:57:22;50.83;;;28.00;;
15256;SDS011;7731;50.720;6.912;2023-03-03T07:59:59;44.17;;;22.93;;
15256;SDS011;7731;50.720;6.912;2023-03-03T08:02:53;42.07;;;23.27;;
15256;SDS011;7731;50.720;6.912;2023-03-03T08:05:32;42.90;;;23.90;;
15256;SDS011;7731;50.720;6.912;2023-03-03T08:08:18;44.13;;;23.37;;
15256;SDS011;7731;50.720;6.912;2023-03-03T08:10:59;40.87;;;22.47;;
15256;SDS011;7731;50.720;6.912;2023-03-03T08:13:35;46.40;;;23.90;;
15256;SDS011;7731;50.720;6.912;2023-03-03T08:19:08;40.57;;;23.00;;
15256;SDS011;7731;50.720;6.912;2023-03-03T08:21:46;48.00;;;24.27;;
15256;SDS011;7731;50.720;6.912;2023-03-03T08:24:17;46.67;;;24.13;;
15256;SDS011;7731;50.720;6.912;2023-03-03T08:26:47;45.40;;;23.93;;
15256;SDS011;7731;50.720;6.912;2023-03-03T08:29:17;38.43;;;22.00;;
15256;SDS011;7731;50.720;6.912;2023-03-03T08:31:47;43.17;;;23.47;;
15256;SDS011;7731;50.720;6.912;2023-03-03T08:34:20;40.47;;;23.03;;
15256;SDS011;7731;50.720;6.912;2023-03-03T08:36:50;44.97;;;23.87;;
15256;SDS011;7731;50.720;6.912;2023-03-03T08:39:24;41.77;;;23.70;;
15256;SDS011;7731;50.720;6.912;2023-03-03T08:41:54;39.63;;;23.17;;
15256;SDS011;7731;50.720;6.912;2023-03-03T08:44:24;41.70;;;23.87;;
15256;SDS011;7731;50.720;6.912;2023-03-03T08:46:54;43.80;;;22.80;;
15256;SDS011;7731;50.720;6.912;2023-03-03T08:49:27;46.93;;;23.77;;
15256;SDS011;7731;50.720;6.912;2023-03-03T08:51:57;48.93;;;25.93;;
15256;SDS011;7731;50.720;6.912;2023-03-03T08:54:27;44.73;;;24.23;;
15256;SDS011;7731;50.720;6.912;2023-03-03T08:56:58;47.17;;;25.97;;
15256;SDS011;7731;50.720;6.912;2023-03-03T08:59:28;43.27;;;24.57;;
15256;SDS011;7731;50.720;6.912;2023-03-03T09:02:03;49.03;;;23.93;;
15256;SDS011;7731;50.720;6.912;2023-03-03T09:04:36;45.53;;;23.53;;
15256;SDS011;7731;50.720;6.912;2023-03-03T09:07:06;44.20;;;22.67;;
15256;SDS011;7731;50.720;6.912;2023-03-03T09:09:37;43.63;;;23.67;;
15256;SDS011;7731;50.720;6.912;2023-03-03T09:12:12;43.17;;;23.17;;
15256;SDS011;7731;50.720;6.912;2023-03-03T09:14:46;42.17;;;23.67;;
15256;SDS011;7731;50.720;6.912;2023-03-03T09:17:18;45.47;;;24.83;;
15256;SDS011;7731;50.720;6.912;2023-03-03T09:19:59;46.60;;;25.27;;
15256;SDS011;7731;50.720;6.912;2023-03-03T09:22:50;49.93;;;25.23;;
15256;SDS011;7731;50.720;6.912;2023-03-03T09:25:21;48.23;;;25.03;;
15256;SDS011;7731;50.720;6.912;2023-03-03T09:27:59;45.47;;;24.47;;
15256;SDS011;7731;50.720;6.912;2023-03-03T09:30:35;47.93;;;25.00;;
15256;SDS011;7731;50.720;6.912;2023-03-03T09:33:18;46.87;;;25.60;;
15256;SDS011;7731;50.720;6.912;2023-03-03T09:36:00;47.67;;;25.80;;
15256;SDS011;7731;50.720;6.912;2023-03-03T09:38:47;51.37;;;27.83;;
15256;SDS011;7731;50.720;6.912;2023-03-03T09:47:54;54.27;;;29.20;;
15256;SDS011;7731;50.720;6.912;2023-03-03T09:51:34;53.83;;;28.20;;
15256;SDS011;7731;50.720;6.912;2023-03-03T09:54:42;54.13;;;28.73;;
15256;SDS011;7731;50.720;6.912;2023-03-03T09:57:30;55.67;;;27.93;;
15256;SDS011;7731;50.720;6.912;2023-03-03T10:00:37;56.17;;;30.50;;
15256;SDS011;7731;50.720;6.912;2023-03-03T10:03:40;64.20;;;30.47;;
15256;SDS011;7731;50.720;6.912;2023-03-03T10:06:46;58.20;;;30.43;;
15256;SDS011;7731;50.720;6.912;2023-03-03T10:09:40;57.43;;;28.83;;
15256;SDS011;7731;50.720;6.912;2023-03-03T10:12:32;57.53;;;30.23;;
15256;SDS011;7731;50.720;6.912;2023-03-03T10:15:18;63.07;;;32.87;;
15256;SDS011;7731;50.720;6.912;2023-03-03T10:18:01;58.37;;;30.80;;
15256;SDS011;7731;50.720;6.912;2023-03-03T10:20:55;56.67;;;30.07;;
15256;SDS011;7731;50.720;6.912;2023-03-03T10:23:45;56.07;;;29.23;;
15256;SDS011;7731;50.720;6.912;2023-03-03T10:29:41;48.70;;;26.60;;
15256;SDS011;7731;50.720;6.912;2023-03-03T10:35:27;48.57;;;26.17;;
15256;SDS011;7731;50.720;6.912;2023-03-03T10:38:49;44.13;;;24.03;;
15256;SDS011;7731;50.720;6.912;2023-03-03T10:41:48;42.93;;;22.90;;
15256;SDS011;7731;50.720;6.912;2023-03-03T10:44:45;39.50;;;22.07;;
15256;SDS011;7731;50.720;6.912;2023-03-03T10:47:52;44.67;;;24.27;;
15256;SDS011;7731;50.720;6.912;2023-03-03T10:50:47;50.57;;;26.43;;
15256;SDS011;7731;50.720;6.912;2023-03-03T10:53:26;51.97;;;26.80;;
15256;SDS011;7731;50.720;6.912;2023-03-03T10:56:10;47.07;;;25.60;;
15256;SDS011;7731;50.720;6.912;2023-03-03T10:59:21;49.07;;;25.10;;
15256;SDS011;7731;50.720;6.912;2023-03-03T11:02:07;47.87;;;22.93;;
15256;SDS011;7731;50.720;6.912;2023-03-03T11:04:58;41.57;;;23.20;;
15256;SDS011;7731;50.720;6.912;2023-03-03T11:07:46;44.00;;;23.43;;
15256;SDS011;7731;50.720;6.912;2023-03-03T11:10:27;46.23;;;24.80;;
15256;SDS011;7731;50.720;6.912;2023-03-03T11:13:20;46.63;;;23.87;;
15256;SDS011;7731;50.720;6.912;2023-03-03T11:19:09;45.67;;;25.73;;
15256;SDS011;7731;50.720;6.912;2023-03-03T11:22:02;40.60;;;22.80;;
15256;SDS011;7731;50.720;6.912;2023-03-03T11:24:50;42.67;;;23.20;;
15256;SDS011;7731;50.720;6.912;2023-03-03T11:27:35;38.67;;;21.30;;
15256;SDS011;7731;50.720;6.912;2023-03-03T11:30:34;40.60;;;22.17;;
15256;SDS011;7731;50.720;6.912;2023-03-03T11:33:24;41.27;;;22.90;;
15256;SDS011;7731;50.720;6.912;2023-03-03T11:36:08;41.80;;;22.43;;
15256;SDS011;7731;50.720;6.912;2023-03-03T11:38:47;43.50;;;23.47;;
15256;SDS011;7731;50.720;6.912;2023-03-03T11:41:38;51.50;;;24.30;;
15256;SDS011;7731;50.720;6.912;2023-03-03T11:44:16;48.00;;;25.17;;
15256;SDS011;7731;50.720;6.912;2023-03-03T11:47:04;43.37;;;25.00;;
15256;SDS011;7731;50.720;6.912;2023-03-03T11:49:50;45.33;;;23.03;;
15256;SDS011;7731;50.720;6.912;2023-03-03T11:52:31;43.37;;;22.73;;
15256;SDS011;7731;50.720;6.912;2023-03-03T11:55:16;39.90;;;21.23;;
15256;SDS011;7731;50.720;6.912;2023-03-03T11:57:56;37.93;;;21.27;;
15256;SDS011;7731;50.720;6.912;2023-03-03T12:00:42;39.37;;;20.83;;
15256;SDS011;7731;50.720;6.912;2023-03-03T12:03:23;38.83;;;20.40;;
15256;SDS011;7731;50.720;6.912;2023-03-03T12:06:12;38.47;;;20.97;;
15256;SDS011;7731;50.720;6.912;2023-03-03T12:11:48;50.17;;;28.53;;
15256;SDS011;7731;50.720;6.912;2023-03-03T12:14:29;46.07;;;23.73;;
15256;SDS011;7731;50.720;6.912;2023-03-03T12:17:26;39.83;;;23.03;;
15256;SDS011;7731;50.720;6.912;2023-03-03T12:20:20;38.57;;;20.83;;
15256;SDS011;7731;50.720;6.912;2023-03-03T12:23:04;35.67;;;20.67;;
15256;SDS011;7731;50.720;6.912;2023-03-03T12:26:08;38.17;;;20.23;;
15256;SDS011;7731;50.720;6.912;2023-03-03T12:28:46;39.47;;;22.60;;
15256;SDS011;7731;50.720;6.912;2023-03-03T12:31:29;40.47;;;22.70;;
15256;SDS011;7731;50.720;6.912;2023-03-03T12:34:18;40.10;;;22.13;;
15256;SDS011;7731;50.720;6.912;2023-03-03T12:37:08;44.77;;;23.03;;
15256;SDS011;7731;50.720;6.912;2023-03-03T12:40:00;38.50;;;22.57;;
15256;SDS011;7731;50.720;6.912;2023-03-03T12:42:45;35.37;;;20.97;;
15256;SDS011;7731;50.720;6.912;2023-03-03T12:45:36;38.10;;;20.80;;
15256;SDS011;7731;50.720;6.912;2023-03-03T12:48:22;41.00;;;21.63;;
15256;SDS011;7731;50.720;6.912;2023-03-03T12:51:09;41.93;;;23.30;;
15256;SDS011;7731;50.720;6.912;2023-03-03T12:57:13;46.33;;;23.10;;
15256;SDS011;7731;50.720;6.912;2023-03-03T12:59:59;44.23;;;21.80;;
15256;SDS011;7731;50.720;6.912;2023-03-03T13:02:52;40.07;;;22.10;;
15256;SDS011;7731;50.720;6.912;2023-03-03T13:05:33;42.93;;;21.57;;
15256;SDS011;7731;50.720;6.912;2023-03-03T13:08:25;41.43;;;22.13;;
15256;SDS011;7731;50.720;6.912;2023-03-03T13:11:26;43.53;;;22.37;;
15256;SDS011;7731;50.720;6.912;2023-03-03T13:14:16;40.33;;;22.00;;
15256;SDS011;7731;50.720;6.912;2023-03-03T13:17:03;48.70;;;23.60;;
15256;SDS011;7731;50.720;6.912;2023-03-03T13:19:51;41.20;;;20.50;;
15256;SDS011;7731;50.720;6.912;2023-03-03T13:22:33;38.63;;;21.00;;
15256;SDS011;7731;50.720;6.912;2023-03-03T13:25:19;42.03;;;22.00;;
15256;SDS011;7731;50.720;6.912;2023-03-03T13:28:20;40.33;;;21.50;;
15256;SDS011;7731;50.720;6.912;2023-03-03T13:31:02;38.80;;;20.63;;
15256;SDS011;7731;50.720;6.912;2023-03-03T13:33:43;42.53;;;22.60;;
15256;SDS011;7731;50.720;6.912;2023-03-03T13:36:21;41.03;;;21.17;;
15256;SDS011;7731;50.720;6.912;2023-03-03T13:38:58;46.20;;;22.70;;
15256;SDS011;7731;50.720;6.912;2023-03-03T13:41:35;45.70;;;22.93;;
15256;SDS011;7731;50.720;6.912;2023-03-03T13:44:19;44.07;;;22.87;;
15256;SDS011;7731;50.720;6.912;2023-03-03T13:47:05;48.53;;;23.80;;
15256;SDS011;7731;50.720;6.912;2023-03-03T13:49:48;38.83;;;21.33;;
15256;SDS011;7731;50.720;6.912;2023-03-03T13:52:37;45.70;;;24.00;;
15256;SDS011;7731;50.720;6.912;2023-03-03T13:55:27;42.33;;;21.43;;
15256;SDS011;7731;50.720;6.912;2023-03-03T13:58:05;46.73;;;23.13;;
15256;SDS011;7731;50.720;6.912;2023-03-03T14:00:54;58.57;;;31.17;;
15256;SDS011;7731;50.720;6.912;2023-03-03T14:03:35;48.97;;;26.00;;
15256;SDS011;7731;50.720;6.912;2023-03-03T14:06:28;49.83;;;28.40;;
15256;SDS011;7731;50.720;6.912;2023-03-03T14:09:02;42.87;;;22.10;;
15256;SDS011;7731;50.720;6.912;2023-03-03T14:11:51;45.73;;;22.43;;
15256;SDS011;7731;50.720;6.912;2023-03-03T14:14:36;44.23;;;21.80;;
15256;SDS011;7731;50.720;6.912;2023-03-03T14:17:24;46.00;;;23.70;;
15256;SDS011;7731;50.720;6.912;2023-03-03T14:20:11;47.60;;;24.20;;
15256;SDS011;7731;50.720;6.912;2023-03-03T14:22:52;52.17;;;25.63;;
15256;SDS011;7731;50.720;6.912;2023-03-03T14:25:38;47.63;;;22.70;;
15256;SDS011;7731;50.720;6.912;2023-03-03T14:28:25;46.70;;;22.90;;
15256;SDS011;7731;50.720;6.912;2023-03-03T14:30:58;47.67;;;23.07;;
15256;SDS011;7731;50.720;6.912;2023-03-03T14:34:08;39.97;;;20.43;;
15256;SDS011;7731;50.720;6.912;2023-03-03T14:36:59;46.90;;;22.87;;
15256;SDS011;7731;50.720;6.912;2023-03-03T14:39:59;45.27;;;22.07;;
15256;SDS011;7731;50.720;6.912;2023-03-03T14:42:45;50.80;;;25.23;;
15256;SDS011;7731;50.720;6.912;2023-03-03T14:45:28;49.17;;;24.63;;
15256;SDS011;7731;50.720;6.912;2023-03-03T14:48:09;48.83;;;24.63;;
15256;SDS011;7731;50.720;6.912;2023-03-03T14:50:50;47.27;;;25.93;;
15256;SDS011;7731;50.720;6.912;2023-03-03T14:53:30;55.07;;;27.23;;
15256;SDS011;7731;50.720;6.912;2023-03-03T14:56:14;56.07;;;28.43;;
15256;SDS011;7731;50.720;6.912;2023-03-03T14:58:51;57.03;;;28.73;;
15256;SDS011;7731;50.720;6.912;2023-03-03T15:01:38;58.50;;;31.03;;
15256;SDS011;7731;50.720;6.912;2023-03-03T15:04:09;60.40;;;29.63;;
15256;SDS011;7731;50.720;6.912;2023-03-03T15:06:56;61.03;;;32.33;;
15256;SDS011;7731;50.720;6.912;2023-03-03T15:09:33;76.83;;;42.73;;
15256;SDS011;7731;50.720;6.912;2023-03-03T15:12:19;62.50;;;29.87;;
15256;SDS011;7731;50.720;6.912;2023-03-03T15:14:52;68.30;;;33.63;;
15256;SDS011;7731;50.720;6.912;2023-03-03T15:17:53;68.67;;;33.00;;
15256;SDS011;7731;50.720;6.912;2023-03-03T15:20:30;69.27;;;34.57;;
15256;SDS011;7731;50.720;6.912;2023-03-03T15:23:31;78.47;;;34.87;;
15256;SDS011;7731;50.720;6.912;2023-03-03T15:26:17;73.00;;;34.53;;
15256;SDS011;7731;50.720;6.912;2023-03-03T15:28:57;74.03;;;34.43;;
15256;SDS011;7731;50.720;6.912;2023-03-03T15:31:43;68.77;;;35.67;;
15256;SDS011;7731;50.720;6.912;2023-03-03T15:34:26;73.43;;;35.80;;
15256;SDS011;7731;50.720;6.912;2023-03-03T15:37:11;76.67;;;36.77;;
15256;SDS011;7731;50.720;6.912;2023-03-03T15:40:08;79.77;;;38.13;;
15256;SDS011;7731;50.720;6.912;2023-03-03T15:42:56;82.40;;;39.50;;
15256;SDS011;7731;50.720;6.912;2023-03-03T15:45:37;84.73;;;39.87;;
15256;SDS011;7731;50.720;6.912;2023-03-03T15:48:18;86.30;;;40.83;;
15256;SDS011;7731;50.720;6.912;2023-03-03T15:51:22;86.47;;;41.33;;
15256;SDS011;7731;50.720;6.912;2023-03-03T15:54:29;76.47;;;39.90;;
15256;SDS011;7731;50.720;6.912;2023-03-03T15:57:19;79.83;;;39.90;;
15256;SDS011;7731;50.720;6.912;2023-03-03T16:00:14;83.50;;;38.67;;
15256;SDS011;7731;50.720;6.912;2023-03-03T16:03:11;73.00;;;37.10;;
15256;SDS011;7731;50.720;6.912;2023-03-03T16:05:51;73.10;;;36.00;;
15256;SDS011;7731;50.720;6.912;2023-03-03T16:08:29;74.00;;;36.17;;
15256;SDS011;7731;50.720;6.912;2023-03-03T16:11:19;77.97;;;35.53;;
15256;SDS011;7731;50.720;6.912;2023-03-03T16:14:15;72.80;;;35.10;;